sensor_id;sensor_type;location;lat;lon;timestamp;P1;durP1;ratioP1;P2;durP2;ratioP2
51883;SDS011;37915;53.254;6.598;2024-01-10T00:01:43;16.58;;;10.35;;
51883;SDS011;37915;53.254;6.598;2024-01-10T00:04:09;20.92;;;12.40;;
51883;SDS011;37915;53.254;6.598;2024-01-10T00:06:35;20.52;;;12.32;;
51883;SDS011;37915;53.254;6.598;2024-01-10T00:09:01;20.52;;;11.90;;
51883;SDS011;37915;53.254;6.598;2024-01-10T00:11:27;20.92;;;13.43;;
51883;SDS011;37915;53.254;6.598;2024-01-10T00:13:53;21.33;;;12.55;;
51883;SDS011;37915;53.254;6.598;2024-01-10T00:16:27;22.85;;;12.07;;
51883;SDS011;37915;53.254;6.598;2024-01-10T00:18:53;22.73;;;13.13;;
51883;SDS011;37915;53.254;6.598;2024-01-10T00:21:20;20.88;;;11.68;;
51883;SDS011;37915;53.254;6.598;2024-01-10T00:23:46;18.75;;;11.88;;
51883;SDS011;37915;53.254;6.598;2024-01-10T00:26:12;23.88;;;14.00;;
51883;SDS011;37915;53.254;6.598;2024-01-10T00:28:38;22.90;;;13.13;;
51883;SDS011;37915;53.254;6.598;2024-01-10T00:31:04;24.00;;;12.65;;
51883;SDS011;37915;53.254;6.598;2024-01-10T00:33:30;22.58;;;13.35;;
51883;SDS011;37915;53.254;6.598;2024-01-10T00:35:56;23.77;;;13.77;;
51883;SDS011;37915;53.254;6.598;2024-01-10T00:38:22;22.42;;;13.10;;
51883;SDS011;37915;53.254;6.598;2024-01-10T00:40:48;26.10;;;13.93;;
51883;SDS011;37915;53.254;6.598;2024-01-10T00:43:14;22.58;;;13.30;;
51883;SDS011;37915;53.254;6.598;2024-01-10T00:45:41;21.55;;;12.88;;
51883;SDS011;37915;53.254;6.598;2024-01-10T00:48:07;25.40;;;13.90;;
51883;SDS011;37915;53.254;6.598;2024-01-10T00:50:33;21.65;;;12.85;;
51883;SDS011;37915;53.254;6.598;2024-01-10T00:52:59;24.70;;;13.38;;
51883;SDS011;37915;53.254;6.598;2024-01-10T00:55:25;24.92;;;13.90;;
51883;SDS011;37915;53.254;6.598;2024-01-10T00:57:52;19.05;;;12.38;;
51883;SDS011;37915;53.254;6.598;2024-01-10T01:00:18;27.40;;;15.60;;
51883;SDS011;37915;53.254;6.598;2024-01-10T01:02:44;25.95;;;14.00;;
51883;SDS011;37915;53.254;6.598;2024-01-10T01:05:10;24.63;;;13.20;;
51883;SDS011;37915;53.254;6.598;2024-01-10T01:07:36;24.63;;;15.02;;
51883;SDS011;37915;53.254;6.598;2024-01-10T01:10:02;27.45;;;16.08;;
51883;SDS011;37915;53.254;6.598;2024-01-10T01:12:29;25.98;;;14.75;;
51883;SDS011;37915;53.254;6.598;2024-01-10T01:14:55;25.63;;;16.02;;
51883;SDS011;37915;53.254;6.598;2024-01-10T01:17:21;29.25;;;16.02;;
51883;SDS011;37915;53.254;6.598;2024-01-10T01:19:47;26.25;;;15.48;;
51883;SDS011;37915;53.254;6.598;2024-01-10T01:22:14;27.73;;;15.05;;
51883;SDS011;37915;53.254;6.598;2024-01-10T01:24:40;31.55;;;17.23;;
51883;SDS011;37915;53.254;6.598;2024-01-10T01:27:06;28.38;;;15.63;;
51883;SDS011;37915;53.254;6.598;2024-01-10T01:29:32;26.77;;;16.35;;
51883;SDS011;37915;53.254;6.598;2024-01-10T01:31:58;30.52;;;16.00;;
51883;SDS011;37915;53.254;6.598;2024-01-10T01:34:24;33.25;;;17.27;;
51883;SDS011;37915;53.254;6.598;2024-01-10T01:36:50;31.90;;;18.35;;
51883;SDS011;37915;53.254;6.598;2024-01-10T01:39:17;36.28;;;18.05;;
51883;SDS011;37915;53.254;6.598;2024-01-10T01:41:43;31.52;;;17.10;;
51883;SDS011;37915;53.254;6.598;2024-01-10T01:44:09;33.85;;;16.67;;
51883;SDS011;37915;53.254;6.598;2024-01-10T01:46:35;30.40;;;17.73;;
51883;SDS011;37915;53.254;6.598;2024-01-10T01:49:01;30.65;;;18.13;;
51883;SDS011;37915;53.254;6.598;2024-01-10T01:51:28;35.53;;;18.40;;
51883;SDS011;37915;53.254;6.598;2024-01-10T01:53:55;33.78;;;17.92;;
51883;SDS011;37915;53.254;6.598;2024-01-10T01:56:21;32.83;;;18.30;;
51883;SDS011;37915;53.254;6.598;2024-01-10T01:58:48;27.48;;;17.23;;
51883;SDS011;37915;53.254;6.598;2024-01-10T02:01:16;31.27;;;17.33;;
51883;SDS011;37915;53.254;6.598;2024-01-10T02:03:42;28.30;;;17.48;;
51883;SDS011;37915;53.254;6.598;2024-01-10T02:06:08;31.00;;;18.02;;
51883;SDS011;37915;53.254;6.598;2024-01-10T02:08:34;29.30;;;17.08;;
51883;SDS011;37915;53.254;6.598;2024-01-10T02:11:01;29.65;;;17.85;;
51883;SDS011;37915;53.254;6.598;2024-01-10T02:13:28;31.98;;;19.05;;
51883;SDS011;37915;53.254;6.598;2024-01-10T02:15:55;31.23;;;17.40;;
51883;SDS011;37915;53.254;6.598;2024-01-10T02:18:21;29.85;;;17.38;;
51883;SDS011;37915;53.254;6.598;2024-01-10T02:20:47;32.28;;;18.48;;
51883;SDS011;37915;53.254;6.598;2024-01-10T02:23:13;30.13;;;17.70;;
51883;SDS011;37915;53.254;6.598;2024-01-10T02:25:40;30.20;;;17.77;;
51883;SDS011;37915;53.254;6.598;2024-01-10T02:28:06;31.75;;;18.10;;
51883;SDS011;37915;53.254;6.598;2024-01-10T02:30:34;31.52;;;18.80;;
51883;SDS011;37915;53.254;6.598;2024-01-10T02:33:00;35.65;;;20.23;;
51883;SDS011;37915;53.254;6.598;2024-01-10T02:35:26;30.67;;;18.33;;
51883;SDS011;37915;53.254;6.598;2024-01-10T02:37:53;37.13;;;19.05;;
51883;SDS011;37915;53.254;6.598;2024-01-10T02:40:19;30.65;;;18.00;;
51883;SDS011;37915;53.254;6.598;2024-01-10T02:42:45;32.42;;;18.48;;
51883;SDS011;37915;53.254;6.598;2024-01-10T02:45:12;31.70;;;17.73;;
51883;SDS011;37915;53.254;6.598;2024-01-10T02:47:38;29.85;;;18.73;;
51883;SDS011;37915;53.254;6.598;2024-01-10T02:50:05;32.17;;;18.67;;
51883;SDS011;37915;53.254;6.598;2024-01-10T02:52:31;30.45;;;17.20;;
51883;SDS011;37915;53.254;6.598;2024-01-10T02:54:57;28.73;;;17.27;;
51883;SDS011;37915;53.254;6.598;2024-01-10T02:57:23;32.42;;;18.52;;
51883;SDS011;37915;53.254;6.598;2024-01-10T02:59:49;31.20;;;17.63;;
51883;SDS011;37915;53.254;6.598;2024-01-10T03:02:15;30.90;;;18.88;;
51883;SDS011;37915;53.254;6.598;2024-01-10T03:04:42;31.30;;;18.23;;
51883;SDS011;37915;53.254;6.598;2024-01-10T03:07:09;31.17;;;18.20;;
51883;SDS011;37915;53.254;6.598;2024-01-10T03:09:35;25.88;;;16.15;;
51883;SDS011;37915;53.254;6.598;2024-01-10T03:12:01;29.98;;;17.80;;
51883;SDS011;37915;53.254;6.598;2024-01-10T03:14:27;26.73;;;16.95;;
51883;SDS011;37915;53.254;6.598;2024-01-10T03:16:53;29.55;;;16.60;;
51883;SDS011;37915;53.254;6.598;2024-01-10T03:19:19;31.20;;;17.55;;
51883;SDS011;37915;53.254;6.598;2024-01-10T03:21:45;32.15;;;18.52;;
51883;SDS011;37915;53.254;6.598;2024-01-10T03:24:11;34.05;;;17.80;;
51883;SDS011;37915;53.254;6.598;2024-01-10T03:26:37;29.55;;;18.63;;
51883;SDS011;37915;53.254;6.598;2024-01-10T03:29:04;28.65;;;16.77;;
51883;SDS011;37915;53.254;6.598;2024-01-10T03:31:31;30.70;;;17.55;;
51883;SDS011;37915;53.254;6.598;2024-01-10T03:33:57;33.75;;;18.48;;
51883;SDS011;37915;53.254;6.598;2024-01-10T03:36:24;30.10;;;19.15;;
51883;SDS011;37915;53.254;6.598;2024-01-10T03:38:50;28.88;;;18.25;;
51883;SDS011;37915;53.254;6.598;2024-01-10T03:41:16;31.80;;;17.70;;
51883;SDS011;37915;53.254;6.598;2024-01-10T03:43:43;27.92;;;16.48;;
51883;SDS011;37915;53.254;6.598;2024-01-10T03:46:10;31.25;;;18.13;;
51883;SDS011;37915;53.254;6.598;2024-01-10T03:48:36;29.25;;;16.77;;
51883;SDS011;37915;53.254;6.598;2024-01-10T03:51:03;30.42;;;17.48;;
51883;SDS011;37915;53.254;6.598;2024-01-10T03:53:30;31.70;;;17.73;;
51883;SDS011;37915;53.254;6.598;2024-01-10T03:55:56;30.58;;;18.15;;
51883;SDS011;37915;53.254;6.598;2024-01-10T03:58:23;32.25;;;17.85;;
51883;SDS011;37915;53.254;6.598;2024-01-10T04:00:49;31.13;;;17.67;;
51883;SDS011;37915;53.254;6.598;2024-01-10T04:03:15;32.13;;;17.70;;
51883;SDS011;37915;53.254;6.598;2024-01-10T04:05:41;28.55;;;17.38;;
51883;SDS011;37915;53.254;6.598;2024-01-10T04:08:07;31.73;;;17.60;;
51883;SDS011;37915;53.254;6.598;2024-01-10T04:10:34;31.45;;;18.38;;
51883;SDS011;37915;53.254;6.598;2024-01-10T04:13:00;30.98;;;18.08;;
51883;SDS011;37915;53.254;6.598;2024-01-10T04:15:26;31.88;;;18.38;;
51883;SDS011;37915;53.254;6.598;2024-01-10T04:17:52;33.65;;;19.13;;
51883;SDS011;37915;53.254;6.598;2024-01-10T04:20:18;31.05;;;18.45;;
51883;SDS011;37915;53.254;6.598;2024-01-10T04:22:44;30.45;;;17.98;;
51883;SDS011;37915;53.254;6.598;2024-01-10T04:25:10;32.15;;;18.38;;
51883;SDS011;37915;53.254;6.598;2024-01-10T04:27:36;39.47;;;19.67;;
51883;SDS011;37915;53.254;6.598;2024-01-10T04:30:03;33.83;;;18.60;;
51883;SDS011;37915;53.254;6.598;2024-01-10T04:32:30;34.28;;;18.17;;
51883;SDS011;37915;53.254;6.598;2024-01-10T04:34:56;34.08;;;18.08;;
51883;SDS011;37915;53.254;6.598;2024-01-10T04:37:22;27.67;;;16.73;;
51883;SDS011;37915;53.254;6.598;2024-01-10T04:39:48;30.55;;;18.38;;
51883;SDS011;37915;53.254;6.598;2024-01-10T04:42:14;32.30;;;18.67;;
51883;SDS011;37915;53.254;6.598;2024-01-10T04:44:41;31.15;;;19.20;;
51883;SDS011;37915;53.254;6.598;2024-01-10T04:47:07;33.60;;;18.60;;
51883;SDS011;37915;53.254;6.598;2024-01-10T04:49:33;30.27;;;18.60;;
51883;SDS011;37915;53.254;6.598;2024-01-10T04:51:59;32.28;;;18.88;;
51883;SDS011;37915;53.254;6.598;2024-01-10T04:54:26;30.48;;;18.23;;
51883;SDS011;37915;53.254;6.598;2024-01-10T04:56:52;34.17;;;19.77;;
51883;SDS011;37915;53.254;6.598;2024-01-10T04:59:18;33.63;;;19.08;;
51883;SDS011;37915;53.254;6.598;2024-01-10T05:01:44;32.85;;;19.13;;
51883;SDS011;37915;53.254;6.598;2024-01-10T05:04:10;31.90;;;18.77;;
51883;SDS011;37915;53.254;6.598;2024-01-10T05:06:36;32.80;;;18.60;;
51883;SDS011;37915;53.254;6.598;2024-01-10T05:09:03;28.77;;;17.98;;
51883;SDS011;37915;53.254;6.598;2024-01-10T05:11:29;34.95;;;18.85;;
51883;SDS011;37915;53.254;6.598;2024-01-10T05:13:55;29.75;;;16.95;;
51883;SDS011;37915;53.254;6.598;2024-01-10T05:16:22;29.67;;;17.33;;
51883;SDS011;37915;53.254;6.598;2024-01-10T05:18:48;26.73;;;17.45;;
51883;SDS011;37915;53.254;6.598;2024-01-10T05:21:14;31.95;;;17.42;;
51883;SDS011;37915;53.254;6.598;2024-01-10T05:23:40;34.33;;;21.10;;
51883;SDS011;37915;53.254;6.598;2024-01-10T05:26:06;30.77;;;18.50;;
51883;SDS011;37915;53.254;6.598;2024-01-10T05:28:32;33.63;;;19.90;;
51883;SDS011;37915;53.254;6.598;2024-01-10T05:30:58;34.80;;;18.98;;
51883;SDS011;37915;53.254;6.598;2024-01-10T05:33:25;32.17;;;18.95;;
51883;SDS011;37915;53.254;6.598;2024-01-10T05:35:51;33.63;;;19.83;;
51883;SDS011;37915;53.254;6.598;2024-01-10T05:38:17;35.55;;;19.92;;
51883;SDS011;37915;53.254;6.598;2024-01-10T05:40:43;32.33;;;19.40;;
51883;SDS011;37915;53.254;6.598;2024-01-10T05:43:09;35.38;;;19.45;;
51883;SDS011;37915;53.254;6.598;2024-01-10T05:45:36;37.38;;;18.55;;
51883;SDS011;37915;53.254;6.598;2024-01-10T05:48:02;32.83;;;19.00;;
51883;SDS011;37915;53.254;6.598;2024-01-10T05:50:28;34.28;;;20.35;;
51883;SDS011;37915;53.254;6.598;2024-01-10T05:52:55;34.53;;;20.02;;
51883;SDS011;37915;53.254;6.598;2024-01-10T05:55:21;31.00;;;19.65;;
51883;SDS011;37915;53.254;6.598;2024-01-10T05:57:48;32.85;;;19.50;;
51883;SDS011;37915;53.254;6.598;2024-01-10T06:00:14;33.05;;;19.80;;
51883;SDS011;37915;53.254;6.598;2024-01-10T06:02:41;35.20;;;20.27;;
51883;SDS011;37915;53.254;6.598;2024-01-10T06:05:08;32.65;;;19.13;;
51883;SDS011;37915;53.254;6.598;2024-01-10T06:07:35;33.80;;;19.40;;
51883;SDS011;37915;53.254;6.598;2024-01-10T06:10:01;31.90;;;19.48;;
51883;SDS011;37915;53.254;6.598;2024-01-10T06:12:28;33.38;;;19.10;;
51883;SDS011;37915;53.254;6.598;2024-01-10T06:14:54;31.85;;;20.23;;
51883;SDS011;37915;53.254;6.598;2024-01-10T06:17:21;33.05;;;20.65;;
51883;SDS011;37915;53.254;6.598;2024-01-10T06:19:47;32.88;;;19.30;;
51883;SDS011;37915;53.254;6.598;2024-01-10T06:22:13;35.42;;;19.67;;
51883;SDS011;37915;53.254;6.598;2024-01-10T06:24:39;36.53;;;20.23;;
51883;SDS011;37915;53.254;6.598;2024-01-10T06:27:06;34.53;;;20.02;;
51883;SDS011;37915;53.254;6.598;2024-01-10T06:29:33;31.00;;;19.80;;
51883;SDS011;37915;53.254;6.598;2024-01-10T06:31:59;35.90;;;21.63;;
51883;SDS011;37915;53.254;6.598;2024-01-10T06:34:29;33.33;;;18.75;;
51883;SDS011;37915;53.254;6.598;2024-01-10T06:36:55;30.42;;;19.92;;
51883;SDS011;37915;53.254;6.598;2024-01-10T06:39:22;35.38;;;20.52;;
51883;SDS011;37915;53.254;6.598;2024-01-10T06:41:48;35.17;;;21.15;;
51883;SDS011;37915;53.254;6.598;2024-01-10T06:44:15;35.42;;;19.25;;
51883;SDS011;37915;53.254;6.598;2024-01-10T06:46:44;29.98;;;18.58;;
51883;SDS011;37915;53.254;6.598;2024-01-10T06:49:11;30.23;;;18.00;;
51883;SDS011;37915;53.254;6.598;2024-01-10T06:51:37;33.28;;;18.90;;
51883;SDS011;37915;53.254;6.598;2024-01-10T06:54:03;33.33;;;19.45;;
51883;SDS011;37915;53.254;6.598;2024-01-10T06:56:30;36.63;;;20.20;;
51883;SDS011;37915;53.254;6.598;2024-01-10T06:58:57;32.28;;;18.42;;
51883;SDS011;37915;53.254;6.598;2024-01-10T07:01:23;31.25;;;18.08;;
51883;SDS011;37915;53.254;6.598;2024-01-10T07:03:49;32.13;;;18.83;;
51883;SDS011;37915;53.254;6.598;2024-01-10T07:06:15;32.67;;;20.02;;
51883;SDS011;37915;53.254;6.598;2024-01-10T07:08:41;31.08;;;18.25;;
51883;SDS011;37915;53.254;6.598;2024-01-10T07:11:08;33.80;;;19.48;;
51883;SDS011;37915;53.254;6.598;2024-01-10T07:13:34;29.85;;;17.88;;
51883;SDS011;37915;53.254;6.598;2024-01-10T07:16:00;34.35;;;20.02;;
51883;SDS011;37915;53.254;6.598;2024-01-10T07:18:27;35.47;;;20.25;;
51883;SDS011;37915;53.254;6.598;2024-01-10T07:20:54;35.17;;;18.75;;
51883;SDS011;37915;53.254;6.598;2024-01-10T07:23:20;32.55;;;18.40;;
51883;SDS011;37915;53.254;6.598;2024-01-10T07:25:48;30.40;;;18.48;;
51883;SDS011;37915;53.254;6.598;2024-01-10T07:28:15;34.25;;;19.02;;
51883;SDS011;37915;53.254;6.598;2024-01-10T07:30:41;32.90;;;18.38;;
51883;SDS011;37915;53.254;6.598;2024-01-10T07:33:07;34.13;;;20.42;;
51883;SDS011;37915;53.254;6.598;2024-01-10T07:35:33;33.50;;;19.33;;
51883;SDS011;37915;53.254;6.598;2024-01-10T07:37:59;35.58;;;19.52;;
51883;SDS011;37915;53.254;6.598;2024-01-10T07:40:26;33.15;;;18.48;;
51883;SDS011;37915;53.254;6.598;2024-01-10T07:42:52;32.00;;;19.15;;
51883;SDS011;37915;53.254;6.598;2024-01-10T07:45:18;36.15;;;20.88;;
51883;SDS011;37915;53.254;6.598;2024-01-10T07:47:44;33.92;;;19.48;;
51883;SDS011;37915;53.254;6.598;2024-01-10T07:50:11;36.20;;;19.83;;
51883;SDS011;37915;53.254;6.598;2024-01-10T07:52:39;33.60;;;18.73;;
51883;SDS011;37915;53.254;6.598;2024-01-10T07:55:06;33.83;;;18.95;;
51883;SDS011;37915;53.254;6.598;2024-01-10T07:57:33;32.28;;;17.67;;
51883;SDS011;37915;53.254;6.598;2024-01-10T08:00:00;34.05;;;18.27;;
51883;SDS011;37915;53.254;6.598;2024-01-10T08:02:28;35.40;;;19.25;;
51883;SDS011;37915;53.254;6.598;2024-01-10T08:04:59;33.30;;;19.48;;
51883;SDS011;37915;53.254;6.598;2024-01-10T08:07:25;33.60;;;19.08;;
51883;SDS011;37915;53.254;6.598;2024-01-10T08:09:52;34.00;;;18.27;;
51883;SDS011;37915;53.254;6.598;2024-01-10T08:12:18;33.38;;;19.63;;
51883;SDS011;37915;53.254;6.598;2024-01-10T08:14:44;35.30;;;20.00;;
51883;SDS011;37915;53.254;6.598;2024-01-10T08:17:11;36.03;;;18.85;;
51883;SDS011;37915;53.254;6.598;2024-01-10T08:19:37;35.75;;;18.88;;
51883;SDS011;37915;53.254;6.598;2024-01-10T08:22:04;33.75;;;18.02;;
51883;SDS011;37915;53.254;6.598;2024-01-10T08:24:31;32.15;;;17.73;;
51883;SDS011;37915;53.254;6.598;2024-01-10T08:26:57;33.65;;;18.20;;
51883;SDS011;37915;53.254;6.598;2024-01-10T08:29:23;34.83;;;16.80;;
51883;SDS011;37915;53.254;6.598;2024-01-10T08:31:55;35.67;;;16.17;;
51883;SDS011;37915;53.254;6.598;2024-01-10T08:34:21;38.92;;;17.13;;
51883;SDS011;37915;53.254;6.598;2024-01-10T08:36:48;40.30;;;18.48;;
51883;SDS011;37915;53.254;6.598;2024-01-10T08:39:16;49.85;;;17.67;;
51883;SDS011;37915;53.254;6.598;2024-01-10T08:41:42;34.42;;;16.58;;
51883;SDS011;37915;53.254;6.598;2024-01-10T08:44:12;35.00;;;17.35;;
51883;SDS011;37915;53.254;6.598;2024-01-10T08:46:38;38.60;;;17.00;;
51883;SDS011;37915;53.254;6.598;2024-01-10T08:49:04;33.72;;;15.73;;
51883;SDS011;37915;53.254;6.598;2024-01-10T08:51:30;37.33;;;16.63;;
51883;SDS011;37915;53.254;6.598;2024-01-10T08:53:57;37.08;;;15.52;;
51883;SDS011;37915;53.254;6.598;2024-01-10T08:56:23;33.30;;;14.43;;
51883;SDS011;37915;53.254;6.598;2024-01-10T08:58:49;34.63;;;15.68;;
51883;SDS011;37915;53.254;6.598;2024-01-10T09:01:15;31.90;;;14.93;;
51883;SDS011;37915;53.254;6.598;2024-01-10T09:03:41;35.92;;;14.07;;
51883;SDS011;37915;53.254;6.598;2024-01-10T09:06:07;34.13;;;14.55;;
51883;SDS011;37915;53.254;6.598;2024-01-10T09:08:36;28.05;;;13.35;;
51883;SDS011;37915;53.254;6.598;2024-01-10T09:11:04;31.10;;;13.82;;
51883;SDS011;37915;53.254;6.598;2024-01-10T09:13:31;28.65;;;13.63;;
51883;SDS011;37915;53.254;6.598;2024-01-10T09:15:57;30.92;;;13.20;;
51883;SDS011;37915;53.254;6.598;2024-01-10T09:18:23;36.20;;;14.07;;
51883;SDS011;37915;53.254;6.598;2024-01-10T09:20:49;32.17;;;12.88;;
51883;SDS011;37915;53.254;6.598;2024-01-10T09:23:15;31.30;;;13.88;;
51883;SDS011;37915;53.254;6.598;2024-01-10T09:25:42;31.90;;;14.10;;
51883;SDS011;37915;53.254;6.598;2024-01-10T09:28:08;29.90;;;13.75;;
51883;SDS011;37915;53.254;6.598;2024-01-10T09:30:34;33.92;;;14.00;;
51883;SDS011;37915;53.254;6.598;2024-01-10T09:33:00;25.73;;;12.95;;
51883;SDS011;37915;53.254;6.598;2024-01-10T09:35:26;32.47;;;14.95;;
51883;SDS011;37915;53.254;6.598;2024-01-10T09:37:52;25.10;;;12.25;;
51883;SDS011;37915;53.254;6.598;2024-01-10T09:40:18;30.77;;;12.80;;
51883;SDS011;37915;53.254;6.598;2024-01-10T09:42:50;27.63;;;13.90;;
51883;SDS011;37915;53.254;6.598;2024-01-10T09:45:17;30.45;;;13.18;;
51883;SDS011;37915;53.254;6.598;2024-01-10T09:47:45;28.48;;;12.23;;
51883;SDS011;37915;53.254;6.598;2024-01-10T09:50:14;30.85;;;13.00;;
51883;SDS011;37915;53.254;6.598;2024-01-10T09:52:41;29.77;;;13.10;;
51883;SDS011;37915;53.254;6.598;2024-01-10T09:55:11;29.75;;;14.88;;
51883;SDS011;37915;53.254;6.598;2024-01-10T09:57:37;26.67;;;12.70;;
51883;SDS011;37915;53.254;6.598;2024-01-10T10:00:03;27.70;;;13.65;;
51883;SDS011;37915;53.254;6.598;2024-01-10T10:02:30;25.33;;;12.35;;
51883;SDS011;37915;53.254;6.598;2024-01-10T10:05:05;33.60;;;13.02;;
51883;SDS011;37915;53.254;6.598;2024-01-10T10:07:42;27.70;;;12.88;;
51883;SDS011;37915;53.254;6.598;2024-01-10T10:10:08;28.73;;;13.30;;
51883;SDS011;37915;53.254;6.598;2024-01-10T10:12:44;28.20;;;14.65;;
51883;SDS011;37915;53.254;6.598;2024-01-10T10:15:14;28.20;;;13.82;;
51883;SDS011;37915;53.254;6.598;2024-01-10T10:17:42;30.75;;;13.48;;
51883;SDS011;37915;53.254;6.598;2024-01-10T10:20:22;28.70;;;13.13;;
51883;SDS011;37915;53.254;6.598;2024-01-10T10:23:08;24.20;;;12.18;;
51883;SDS011;37915;53.254;6.598;2024-01-10T10:25:44;29.45;;;13.77;;
51883;SDS011;37915;53.254;6.598;2024-01-10T10:28:10;24.27;;;12.98;;
51883;SDS011;37915;53.254;6.598;2024-01-10T10:30:36;27.30;;;12.38;;
51883;SDS011;37915;53.254;6.598;2024-01-10T10:33:02;26.08;;;12.90;;
51883;SDS011;37915;53.254;6.598;2024-01-10T10:35:29;27.27;;;13.07;;
51883;SDS011;37915;53.254;6.598;2024-01-10T10:37:55;26.17;;;12.30;;
51883;SDS011;37915;53.254;6.598;2024-01-10T10:40:21;26.10;;;12.55;;
51883;SDS011;37915;53.254;6.598;2024-01-10T10:42:48;27.20;;;13.90;;
51883;SDS011;37915;53.254;6.598;2024-01-10T10:45:15;26.40;;;12.25;;
51883;SDS011;37915;53.254;6.598;2024-01-10T10:47:43;26.17;;;11.73;;
51883;SDS011;37915;53.254;6.598;2024-01-10T10:50:13;24.88;;;11.77;;
51883;SDS011;37915;53.254;6.598;2024-01-10T10:52:44;22.20;;;11.50;;
51883;SDS011;37915;53.254;6.598;2024-01-10T10:55:23;23.13;;;12.07;;
51883;SDS011;37915;53.254;6.598;2024-01-10T10:57:50;23.63;;;11.93;;
51883;SDS011;37915;53.254;6.598;2024-01-10T11:00:19;24.30;;;12.07;;
51883;SDS011;37915;53.254;6.598;2024-01-10T11:02:46;23.60;;;11.77;;
51883;SDS011;37915;53.254;6.598;2024-01-10T11:05:14;23.90;;;11.80;;
51883;SDS011;37915;53.254;6.598;2024-01-10T11:07:41;24.77;;;11.80;;
51883;SDS011;37915;53.254;6.598;2024-01-10T11:10:12;25.02;;;11.38;;
51883;SDS011;37915;53.254;6.598;2024-01-10T11:25:35;13.68;;;7.72;;
51883;SDS011;37915;53.254;6.598;2024-01-10T11:28:02;16.20;;;7.40;;
51883;SDS011;37915;53.254;6.598;2024-01-10T11:30:35;14.63;;;7.85;;
51883;SDS011;37915;53.254;6.598;2024-01-10T11:33:24;12.80;;;6.93;;
51883;SDS011;37915;53.254;6.598;2024-01-10T11:38:53;17.92;;;7.65;;
51883;SDS011;37915;53.254;6.598;2024-01-10T11:46:32;15.93;;;7.28;;
51883;SDS011;37915;53.254;6.598;2024-01-10T11:48:59;15.57;;;7.88;;
51883;SDS011;37915;53.254;6.598;2024-01-10T11:51:25;13.52;;;6.85;;
51883;SDS011;37915;53.254;6.598;2024-01-10T11:53:51;16.67;;;7.95;;
51883;SDS011;37915;53.254;6.598;2024-01-10T11:56:18;15.88;;;7.65;;
51883;SDS011;37915;53.254;6.598;2024-01-10T11:59:03;15.40;;;8.38;;
51883;SDS011;37915;53.254;6.598;2024-01-10T12:01:29;13.77;;;7.50;;
51883;SDS011;37915;53.254;6.598;2024-01-10T12:03:56;16.40;;;7.57;;
51883;SDS011;37915;53.254;6.598;2024-01-10T12:06:23;14.90;;;8.23;;
51883;SDS011;37915;53.254;6.598;2024-01-10T12:08:50;16.95;;;8.27;;
51883;SDS011;37915;53.254;6.598;2024-01-10T12:11:16;17.13;;;9.43;;
51883;SDS011;37915;53.254;6.598;2024-01-10T12:13:43;18.52;;;9.27;;
51883;SDS011;37915;53.254;6.598;2024-01-10T12:16:12;17.02;;;8.55;;
51883;SDS011;37915;53.254;6.598;2024-01-10T12:18:39;16.77;;;9.05;;
51883;SDS011;37915;53.254;6.598;2024-01-10T12:21:05;14.90;;;7.78;;
51883;SDS011;37915;53.254;6.598;2024-01-10T12:23:31;17.48;;;8.77;;
51883;SDS011;37915;53.254;6.598;2024-01-10T12:26:03;14.18;;;7.32;;
51883;SDS011;37915;53.254;6.598;2024-01-10T12:28:35;15.65;;;7.25;;
51883;SDS011;37915;53.254;6.598;2024-01-10T12:31:03;14.07;;;8.02;;
51883;SDS011;37915;53.254;6.598;2024-01-10T12:33:30;16.05;;;7.63;;
51883;SDS011;37915;53.254;6.598;2024-01-10T12:36:04;13.93;;;7.78;;
51883;SDS011;37915;53.254;6.598;2024-01-10T12:38:30;12.82;;;6.95;;
51883;SDS011;37915;53.254;6.598;2024-01-10T12:40:57;17.13;;;8.00;;
51883;SDS011;37915;53.254;6.598;2024-01-10T12:43:23;16.73;;;8.35;;
51883;SDS011;37915;53.254;6.598;2024-01-10T12:46:06;16.73;;;8.40;;
51883;SDS011;37915;53.254;6.598;2024-01-10T12:48:33;15.75;;;8.05;;
51883;SDS011;37915;53.254;6.598;2024-01-10T12:51:03;17.92;;;9.40;;
51883;SDS011;37915;53.254;6.598;2024-01-10T12:53:40;16.15;;;8.05;;
51883;SDS011;37915;53.254;6.598;2024-01-10T12:56:07;16.27;;;8.18;;
51883;SDS011;37915;53.254;6.598;2024-01-10T12:58:34;14.57;;;7.95;;
51883;SDS011;37915;53.254;6.598;2024-01-10T13:01:04;14.38;;;7.75;;
51883;SDS011;37915;53.254;6.598;2024-01-10T13:03:31;13.63;;;7.70;;
51883;SDS011;37915;53.254;6.598;2024-01-10T13:05:58;15.15;;;7.38;;
51883;SDS011;37915;53.254;6.598;2024-01-10T13:08:24;13.30;;;7.18;;
51883;SDS011;37915;53.254;6.598;2024-01-10T13:10:50;17.45;;;8.73;;
51883;SDS011;37915;53.254;6.598;2024-01-10T13:13:16;14.88;;;8.85;;
51883;SDS011;37915;53.254;6.598;2024-01-10T13:15:43;14.25;;;8.30;;
51883;SDS011;37915;53.254;6.598;2024-01-10T13:18:12;16.65;;;8.60;;
51883;SDS011;37915;53.254;6.598;2024-01-10T13:20:40;18.48;;;10.52;;
51883;SDS011;37915;53.254;6.598;2024-01-10T13:23:06;19.30;;;10.38;;
51883;SDS011;37915;53.254;6.598;2024-01-10T13:25:32;19.30;;;11.05;;
51883;SDS011;37915;53.254;6.598;2024-01-10T13:27:59;21.60;;;10.38;;
51883;SDS011;37915;53.254;6.598;2024-01-10T13:30:26;19.27;;;9.57;;
51883;SDS011;37915;53.254;6.598;2024-01-10T13:32:52;19.75;;;10.95;;
51883;SDS011;37915;53.254;6.598;2024-01-10T13:35:18;21.40;;;10.93;;
51883;SDS011;37915;53.254;6.598;2024-01-10T13:37:45;21.60;;;11.07;;
51883;SDS011;37915;53.254;6.598;2024-01-10T13:40:11;19.13;;;10.13;;
51883;SDS011;37915;53.254;6.598;2024-01-10T13:42:40;21.50;;;11.10;;
51883;SDS011;37915;53.254;6.598;2024-01-10T13:45:07;19.13;;;10.85;;
51883;SDS011;37915;53.254;6.598;2024-01-10T13:47:36;20.98;;;10.32;;
51883;SDS011;37915;53.254;6.598;2024-01-10T13:50:03;20.70;;;10.43;;
51883;SDS011;37915;53.254;6.598;2024-01-10T13:52:31;23.30;;;12.40;;
51883;SDS011;37915;53.254;6.598;2024-01-10T13:54:57;22.85;;;11.23;;
51883;SDS011;37915;53.254;6.598;2024-01-10T13:57:23;20.00;;;11.38;;
51883;SDS011;37915;53.254;6.598;2024-01-10T13:59:49;19.58;;;10.82;;
51883;SDS011;37915;53.254;6.598;2024-01-10T14:02:15;21.33;;;10.38;;
51883;SDS011;37915;53.254;6.598;2024-01-10T14:04:44;19.02;;;9.73;;
51883;SDS011;37915;53.254;6.598;2024-01-10T14:07:10;20.25;;;10.07;;
51883;SDS011;37915;53.254;6.598;2024-01-10T14:09:37;17.67;;;10.02;;
51883;SDS011;37915;53.254;6.598;2024-01-10T14:12:03;17.70;;;10.02;;
51883;SDS011;37915;53.254;6.598;2024-01-10T14:14:29;20.20;;;11.18;;
51883;SDS011;37915;53.254;6.598;2024-01-10T14:16:57;19.45;;;9.80;;
51883;SDS011;37915;53.254;6.598;2024-01-10T14:19:23;18.30;;;10.43;;
51883;SDS011;37915;53.254;6.598;2024-01-10T14:21:49;20.48;;;11.00;;
51883;SDS011;37915;53.254;6.598;2024-01-10T14:24:15;18.92;;;9.98;;
51883;SDS011;37915;53.254;6.598;2024-01-10T14:26:42;18.60;;;9.40;;
51883;SDS011;37915;53.254;6.598;2024-01-10T14:29:09;19.40;;;10.10;;
51883;SDS011;37915;53.254;6.598;2024-01-10T14:31:35;15.45;;;8.60;;
51883;SDS011;37915;53.254;6.598;2024-01-10T14:34:02;16.35;;;9.48;;
51883;SDS011;37915;53.254;6.598;2024-01-10T14:36:29;18.75;;;9.80;;
51883;SDS011;37915;53.254;6.598;2024-01-10T14:38:55;16.55;;;8.63;;
51883;SDS011;37915;53.254;6.598;2024-01-10T14:41:21;22.17;;;11.40;;
51883;SDS011;37915;53.254;6.598;2024-01-10T14:43:47;20.65;;;10.90;;